sensor_id;sensor_type;location;lat;lon;timestamp;pressure;altitude;pressure_sealevel;temperature;humidity
11648;BME280;5880;52.342;9.662;2022-10-23T00:01:34;101015.19;;;17.26;54.17
11648;BME280;5880;52.342;9.662;2022-10-23T00:04:17;101012.69;;;17.24;54.32
11648;BME280;5880;52.342;9.662;2022-10-23T00:06:44;101009.38;;;17.22;54.22
11648;BME280;5880;52.342;9.662;2022-10-23T00:09:13;101012.94;;;17.23;54.44
11648;BME280;5880;52.342;9.662;2022-10-23T00:11:41;101009.38;;;17.22;54.49
11648;BME280;5880;52.342;9.662;2022-10-23T00:14:09;101010.19;;;17.23;54.45
11648;BME280;5880;52.342;9.662;2022-10-23T00:16:35;101012.13;;;17.22;54.33
11648;BME280;5880;52.342;9.662;2022-10-23T00:19:02;101020.16;;;17.24;54.38
11648;BME280;5880;52.342;9.662;2022-10-23T00:21:28;101020.16;;;17.24;54.39
11648;BME280;5880;52.342;9.662;2022-10-23T00:23:54;101016.81;;;17.22;54.45
11648;BME280;5880;52.342;9.662;2022-10-23T00:26:19;101010.47;;;17.21;54.53
11648;BME280;5880;52.342;9.662;2022-10-23T00:28:50;101020.41;;;17.22;54.59
11648;BME280;5880;52.342;9.662;2022-10-23T00:31:17;101014.88;;;17.22;54.57
11648;BME280;5880;52.342;9.662;2022-10-23T00:33:44;101005.47;;;17.18;54.68
11648;BME280;5880;52.342;9.662;2022-10-23T00:36:13;101022.09;;;17.23;54.77
11648;BME280;5880;52.342;9.662;2022-10-23T00:38:39;101021.25;;;17.23;54.69
11648;BME280;5880;52.342;9.662;2022-10-23T00:41:07;101026.25;;;17.26;54.88
11648;BME280;5880;52.342;9.662;2022-10-23T00:43:52;101012.69;;;17.24;54.90
11648;BME280;5880;52.342;9.662;2022-10-23T00:46:18;101022.38;;;17.27;54.97
11648;BME280;5880;52.342;9.662;2022-10-23T00:48:44;101018.53;;;17.28;55.09
11648;BME280;5880;52.342;9.662;2022-10-23T00:51:10;101018.25;;;17.29;55.03
11648;BME280;5880;52.342;9.662;2022-10-23T00:53:36;101008.00;;;17.30;55.01
11648;BME280;5880;52.342;9.662;2022-10-23T00:56:02;101006.09;;;17.30;55.13
11648;BME280;5880;52.342;9.662;2022-10-23T00:58:28;100996.97;;;17.30;55.20
11648;BME280;5880;52.342;9.662;2022-10-23T01:00:55;100995.31;;;17.29;55.25
11648;BME280;5880;52.342;9.662;2022-10-23T01:03:26;101003.63;;;17.34;55.40
11648;BME280;5880;52.342;9.662;2022-10-23T01:06:22;101005.31;;;17.35;55.41
11648;BME280;5880;52.342;9.662;2022-10-23T01:12:00;100988.72;;;17.35;55.47
11648;BME280;5880;52.342;9.662;2022-10-23T01:15:10;100991.22;;;17.37;55.39
11648;BME280;5880;52.342;9.662;2022-10-23T01:18:05;100993.72;;;17.38;55.59
11648;BME280;5880;52.342;9.662;2022-10-23T01:20:42;100997.59;;;17.37;55.57
11648;BME280;5880;52.342;9.662;2022-10-23T01:28:40;100997.59;;;17.42;55.56
11648;BME280;5880;52.342;9.662;2022-10-23T01:31:15;100998.13;;;17.39;55.45
11648;BME280;5880;52.342;9.662;2022-10-23T01:33:53;100989.56;;;17.41;55.38
11648;BME280;5880;52.342;9.662;2022-10-23T01:36:25;100981.28;;;17.36;55.34
11648;BME280;5880;52.342;9.662;2022-10-23T01:39:07;100981.28;;;17.41;55.29
11648;BME280;5880;52.342;9.662;2022-10-23T01:42:10;100971.59;;;17.38;55.30
11648;BME280;5880;52.342;9.662;2022-10-23T01:44:52;100976.31;;;17.38;55.25
11648;BME280;5880;52.342;9.662;2022-10-23T01:47:24;100964.44;;;17.37;55.30
11648;BME280;5880;52.342;9.662;2022-10-23T01:49:54;100960.25;;;17.35;55.19
11648;BME280;5880;52.342;9.662;2022-10-23T01:52:21;100970.47;;;17.34;55.09
11648;BME280;5880;52.342;9.662;2022-10-23T01:54:50;100977.13;;;17.33;54.95
11648;BME280;5880;52.342;9.662;2022-10-23T01:57:20;100970.19;;;17.30;54.91
11648;BME280;5880;52.342;9.662;2022-10-23T01:59:53;100973.47;;;17.27;54.72
11648;BME280;5880;52.342;9.662;2022-10-23T02:02:23;100977.63;;;17.25;54.85
11648;BME280;5880;52.342;9.662;2022-10-23T02:05:05;100977.91;;;17.23;54.47
11648;BME280;5880;52.342;9.662;2022-10-23T02:07:32;100976.75;;;17.19;54.73
11648;BME280;5880;52.342;9.662;2022-10-23T02:09:58;100971.78;;;17.16;54.89
11648;BME280;5880;52.342;9.662;2022-10-23T02:15:40;100976.44;;;17.11;54.88
11648;BME280;5880;52.342;9.662;2022-10-23T02:18:31;100968.41;;;17.09;54.75
11648;BME280;5880;52.342;9.662;2022-10-23T02:21:09;100960.66;;;17.06;54.99
11648;BME280;5880;52.342;9.662;2022-10-23T02:23:51;100961.50;;;17.06;54.99
11648;BME280;5880;52.342;9.662;2022-10-23T02:26:37;100960.94;;;17.04;54.99
11648;BME280;5880;52.342;9.662;2022-10-23T02:29:14;100954.88;;;17.02;55.16
11648;BME280;5880;52.342;9.662;2022-10-23T02:31:43;100954.00;;;17.02;55.17
11648;BME280;5880;52.342;9.662;2022-10-23T02:34:09;100956.75;;;17.02;55.09
11648;BME280;5880;52.342;9.662;2022-10-23T02:36:34;100954.28;;;17.00;55.07
11648;BME280;5880;52.342;9.662;2022-10-23T02:39:00;100944.31;;;16.99;54.94
11648;BME280;5880;52.342;9.662;2022-10-23T02:41:50;100957.88;;;17.01;55.00
11648;BME280;5880;52.342;9.662;2022-10-23T02:51:00;100949.56;;;16.91;55.09
11648;BME280;5880;52.342;9.662;2022-10-23T02:56:53;100952.81;;;16.87;55.36
11648;BME280;5880;52.342;9.662;2022-10-23T02:59:45;100943.72;;;16.87;55.27
11648;BME280;5880;52.342;9.662;2022-10-23T03:02:23;100947.59;;;16.86;55.17
11648;BME280;5880;52.342;9.662;2022-10-23T03:04:53;100939.31;;;16.86;55.24
11648;BME280;5880;52.342;9.662;2022-10-23T03:07:20;100937.63;;;16.85;55.23
11648;BME280;5880;52.342;9.662;2022-10-23T03:09:46;100935.97;;;16.84;55.17
11648;BME280;5880;52.342;9.662;2022-10-23T03:12:12;100927.69;;;16.84;55.34
11648;BME280;5880;52.342;9.662;2022-10-23T03:14:38;100920.25;;;16.84;55.31
11648;BME280;5880;52.342;9.662;2022-10-23T03:17:04;100912.22;;;16.83;55.14
11648;BME280;5880;52.342;9.662;2022-10-23T03:19:30;100907.81;;;16.82;55.22
11648;BME280;5880;52.342;9.662;2022-10-23T03:21:56;100921.59;;;16.82;55.10
11648;BME280;5880;52.342;9.662;2022-10-23T03:24:21;100908.06;;;16.80;55.13
11648;BME280;5880;52.342;9.662;2022-10-23T03:26:47;100908.25;;;16.74;55.21
11648;BME280;5880;52.342;9.662;2022-10-23T03:29:13;100916.63;;;16.79;55.10
11648;BME280;5880;52.342;9.662;2022-10-23T03:31:38;100901.09;;;16.73;55.05
11648;BME280;5880;52.342;9.662;2022-10-23T03:34:04;100903.84;;;16.73;54.86
11648;BME280;5880;52.342;9.662;2022-10-23T03:36:35;100904.41;;;16.70;54.88
11648;BME280;5880;52.342;9.662;2022-10-23T03:39:02;100900.53;;;16.71;54.86
11648;BME280;5880;52.342;9.662;2022-10-23T03:41:29;100894.19;;;16.70;55.04
11648;BME280;5880;52.342;9.662;2022-10-23T03:43:55;100901.63;;;16.70;55.04
11648;BME280;5880;52.342;9.662;2022-10-23T03:46:20;100912.09;;;16.67;55.29
11648;BME280;5880;52.342;9.662;2022-10-23T03:48:46;100903.81;;;16.67;55.42
11648;BME280;5880;52.342;9.662;2022-10-23T03:51:12;100891.09;;;16.66;55.44
11648;BME280;5880;52.342;9.662;2022-10-23T03:53:37;100891.09;;;16.66;55.60
11648;BME280;5880;52.342;9.662;2022-10-23T03:56:04;100886.16;;;16.68;55.61
11648;BME280;5880;52.342;9.662;2022-10-23T03:58:30;100888.09;;;16.68;55.66
11648;BME280;5880;52.342;9.662;2022-10-23T04:00:56;100886.72;;;16.71;55.83
11648;BME280;5880;52.342;9.662;2022-10-23T04:03:22;100895.56;;;16.73;56.06
11648;BME280;5880;52.342;9.662;2022-10-23T04:05:48;100904.69;;;16.73;56.16
11648;BME280;5880;52.342;9.662;2022-10-23T04:08:14;100902.47;;;16.75;56.19
11648;BME280;5880;52.342;9.662;2022-10-23T04:10:39;100912.16;;;16.78;56.22
11648;BME280;5880;52.342;9.662;2022-10-23T04:13:05;100908.06;;;16.80;56.39
11648;BME280;5880;52.342;9.662;2022-10-23T04:15:31;100908.63;;;16.82;56.38
11648;BME280;5880;52.342;9.662;2022-10-23T04:17:57;100902.03;;;16.83;56.46
11648;BME280;5880;52.342;9.662;2022-10-23T04:20:22;100897.34;;;16.84;56.42
11648;BME280;5880;52.342;9.662;2022-10-23T04:22:48;100893.47;;;16.85;56.34
11648;BME280;5880;52.342;9.662;2022-10-23T04:25:14;100903.69;;;16.84;56.57
11648;BME280;5880;52.342;9.662;2022-10-23T04:27:41;100897.59;;;16.87;56.42
11648;BME280;5880;52.342;9.662;2022-10-23T04:30:08;100898.47;;;16.88;56.57
11648;BME280;5880;52.342;9.662;2022-10-23T04:32:34;100895.41;;;16.90;56.38
11648;BME280;5880;52.342;9.662;2022-10-23T04:34:59;100893.47;;;16.90;56.56
11648;BME280;5880;52.342;9.662;2022-10-23T04:37:25;100888.50;;;16.87;56.61
11648;BME280;5880;52.342;9.662;2022-10-23T04:39:52;100884.13;;;16.91;56.60
11648;BME280;5880;52.342;9.662;2022-10-23T04:42:18;100888.53;;;16.92;56.62
11648;BME280;5880;52.342;9.662;2022-10-23T04:44:44;100900.69;;;16.91;56.47
11648;BME280;5880;52.342;9.662;2022-10-23T04:47:09;100895.97;;;16.92;56.59
11648;BME280;5880;52.342;9.662;2022-10-23T04:49:35;100899.84;;;16.91;56.46
11648;BME280;5880;52.342;9.662;2022-10-23T04:52:00;100898.75;;;16.92;56.56
11648;BME280;5880;52.342;9.662;2022-10-23T04:54:26;100890.47;;;16.92;56.60
11648;BME280;5880;52.342;9.662;2022-10-23T04:56:52;100899.56;;;16.92;56.61
11648;BME280;5880;52.342;9.662;2022-10-23T04:59:18;100901.75;;;16.90;56.54
11648;BME280;5880;52.342;9.662;2022-10-23T05:01:43;100891.28;;;16.92;56.40
11648;BME280;5880;52.342;9.662;2022-10-23T05:04:09;100890.47;;;16.92;56.40
11648;BME280;5880;52.342;9.662;2022-10-23T05:06:35;100878.56;;;16.86;56.47
11648;BME280;5880;52.342;9.662;2022-10-23T05:09:00;100880.53;;;16.91;56.52
11648;BME280;5880;52.342;9.662;2022-10-23T05:11:26;100883.53;;;16.89;56.64
11648;BME280;5880;52.342;9.662;2022-10-23T05:13:52;100884.38;;;16.90;56.66
11648;BME280;5880;52.342;9.662;2022-10-23T05:16:47;100884.38;;;16.90;56.55
11648;BME280;5880;52.342;9.662;2022-10-23T05:19:24;100892.94;;;16.88;56.76
11648;BME280;5880;52.342;9.662;2022-10-23T05:21:54;100893.19;;;16.86;56.88
11648;BME280;5880;52.342;9.662;2022-10-23T05:24:24;100874.44;;;16.88;56.82
11648;BME280;5880;52.342;9.662;2022-10-23T05:26:51;100875.25;;;16.89;56.77
11648;BME280;5880;52.342;9.662;2022-10-23T05:29:19;100871.41;;;16.90;56.84
11648;BME280;5880;52.342;9.662;2022-10-23T05:31:47;100873.06;;;16.91;56.80
11648;BME280;5880;52.342;9.662;2022-10-23T05:34:18;100871.97;;;16.92;56.93
11648;BME280;5880;52.342;9.662;2022-10-23T05:36:46;100860.09;;;16.92;56.69
11648;BME280;5880;52.342;9.662;2022-10-23T05:39:12;100857.88;;;16.88;56.92
11648;BME280;5880;52.342;9.662;2022-10-23T05:41:38;100878.31;;;16.93;56.93
11648;BME280;5880;52.342;9.662;2022-10-23T05:44:03;100873.63;;;16.93;57.10
11648;BME280;5880;52.342;9.662;2022-10-23T05:46:29;100866.16;;;16.88;57.00
11648;BME280;5880;52.342;9.662;2022-10-23T05:48:55;100872.78;;;16.93;56.95
11648;BME280;5880;52.342;9.662;2022-10-23T05:51:21;100854.28;;;16.88;57.19
11648;BME280;5880;52.342;9.662;2022-10-23T05:53:53;100861.47;;;16.94;57.23
11648;BME280;5880;52.342;9.662;2022-10-23T05:56:19;100854.31;;;16.93;57.22
11648;BME280;5880;52.342;9.662;2022-10-23T05:58:45;100850.69;;;16.93;57.12
11648;BME280;5880;52.342;9.662;2022-10-23T06:01:12;100846.84;;;16.94;57.25
11648;BME280;5880;52.342;9.662;2022-10-23T06:03:39;100857.63;;;16.95;57.27
11648;BME280;5880;52.342;9.662;2022-10-23T06:06:06;100862.88;;;16.97;57.32
11648;BME280;5880;52.342;9.662;2022-10-23T06:08:33;100862.03;;;16.96;57.17
11648;BME280;5880;52.342;9.662;2022-10-23T06:11:14;100864.56;;;16.98;57.18
11648;BME280;5880;52.342;9.662;2022-10-23T06:13:42;100852.38;;;16.94;57.22
11648;BME280;5880;52.342;9.662;2022-10-23T06:16:17;100860.94;;;16.97;57.24
11648;BME280;5880;52.342;9.662;2022-10-23T06:18:44;100858.47;;;16.96;57.29
11648;BME280;5880;52.342;9.662;2022-10-23T06:21:11;100850.75;;;16.98;57.22
11648;BME280;5880;52.342;9.662;2022-10-23T06:23:39;100857.09;;;16.98;57.32
11648;BME280;5880;52.342;9.662;2022-10-23T06:26:08;100856.25;;;16.98;57.33
11648;BME280;5880;52.342;9.662;2022-10-23T06:28:35;100860.69;;;16.99;57.35
11648;BME280;5880;52.342;9.662;2022-10-23T06:31:06;100852.94;;;16.96;57.25
11648;BME280;5880;52.342;9.662;2022-10-23T06:33:32;100854.34;;;16.98;57.32
11648;BME280;5880;52.342;9.662;2022-10-23T06:35:58;100852.38;;;16.99;57.15
11648;BME280;5880;52.342;9.662;2022-10-23T06:38:24;100844.94;;;16.99;57.34
11648;BME280;5880;52.342;9.662;2022-10-23T06:40:55;100838.31;;;17.00;57.20
11648;BME280;5880;52.342;9.662;2022-10-23T06:43:21;100840.53;;;16.98;57.47
11648;BME280;5880;52.342;9.662;2022-10-23T06:45:47;100843.28;;;16.98;57.44
11648;BME280;5880;52.342;9.662;2022-10-23T06:48:14;100840.53;;;16.98;57.52
11648;BME280;5880;52.342;9.662;2022-10-23T06:50:39;100841.59;;;16.97;57.39
11648;BME280;5880;52.342;9.662;2022-10-23T06:53:06;100838.03;;;16.97;57.50
11648;BME280;5880;52.342;9.662;2022-10-23T06:55:32;100827.28;;;17.00;57.45
11648;BME280;5880;52.342;9.662;2022-10-23T06:57:58;100827.28;;;17.00;57.61
11648;BME280;5880;52.342;9.662;2022-10-23T07:00:24;100838.03;;;17.02;57.41
11648;BME280;5880;52.342;9.662;2022-10-23T07:02:51;100834.19;;;17.03;57.61
11648;BME280;5880;52.342;9.662;2022-10-23T07:05:19;100829.22;;;17.05;57.77
11648;BME280;5880;52.342;9.662;2022-10-23T07:07:45;100825.34;;;17.06;57.75
11648;BME280;5880;52.342;9.662;2022-10-23T07:10:11;100835.03;;;17.08;57.90
11648;BME280;5880;52.342;9.662;2022-10-23T07:12:36;100830.06;;;17.11;57.79
11648;BME280;5880;52.342;9.662;2022-10-23T07:15:02;100819.59;;;17.13;57.86
11648;BME280;5880;52.342;9.662;2022-10-23T07:17:28;100818.47;;;17.14;57.84
11648;BME280;5880;52.342;9.662;2022-10-23T07:19:54;100822.66;;;17.16;57.92
11648;BME280;5880;52.342;9.662;2022-10-23T07:22:19;100820.41;;;17.18;58.09
11648;BME280;5880;52.342;9.662;2022-10-23T07:24:45;100818.22;;;17.20;57.97
11648;BME280;5880;52.342;9.662;2022-10-23T07:27:11;100815.19;;;17.22;58.02
11648;BME280;5880;52.342;9.662;2022-10-23T07:29:36;100816.03;;;17.22;58.17
11648;BME280;5880;52.342;9.662;2022-10-23T07:32:03;100815.75;;;17.24;58.10
11648;BME280;5880;52.342;9.662;2022-10-23T07:34:29;100821.56;;;17.27;58.16
11648;BME280;5880;52.342;9.662;2022-10-23T07:36:56;100818.53;;;17.29;58.29
11648;BME280;5880;52.342;9.662;2022-10-23T07:39:21;100813.56;;;17.26;58.24
11648;BME280;5880;52.342;9.662;2022-10-23T07:41:48;100830.41;;;17.35;58.30
11648;BME280;5880;52.342;9.662;2022-10-23T07:44:14;100833.72;;;17.37;58.25
11648;BME280;5880;52.342;9.662;2022-10-23T07:46:39;100823.25;;;17.39;58.38
11648;BME280;5880;52.342;9.662;2022-10-23T07:49:05;100816.06;;;17.38;58.29
11648;BME280;5880;52.342;9.662;2022-10-23T07:51:31;100816.91;;;17.43;58.47
11648;BME280;5880;52.342;9.662;2022-10-23T07:53:56;100826.31;;;17.47;58.52
11648;BME280;5880;52.342;9.662;2022-10-23T07:56:26;100824.66;;;17.51;58.60
11648;BME280;5880;52.342;9.662;2022-10-23T07:58:55;100813.88;;;17.55;58.59
11648;BME280;5880;52.342;9.662;2022-10-23T08:01:30;100819.41;;;17.60;58.49
11648;BME280;5880;52.342;9.662;2022-10-23T08:03:57;100814.72;;;17.61;58.80
11648;BME280;5880;52.342;9.662;2022-10-23T08:06:23;100810.59;;;17.63;58.68
11648;BME280;5880;52.342;9.662;2022-10-23T08:08:48;100817.75;;;17.64;58.81
11648;BME280;5880;52.342;9.662;2022-10-23T08:11:16;100814.44;;;17.67;58.58
11648;BME280;5880;52.342;9.662;2022-10-23T08:13:43;100806.44;;;17.66;59.06
11648;BME280;5880;52.342;9.662;2022-10-23T08:16:09;100816.09;;;17.73;59.16
11648;BME280;5880;52.342;9.662;2022-10-23T08:18:35;100820.81;;;17.78;59.12
11648;BME280;5880;52.342;9.662;2022-10-23T08:21:03;100822.78;;;17.83;59.25
11648;BME280;5880;52.342;9.662;2022-10-23T08:23:29;100815.59;;;17.87;59.25
11648;BME280;5880;52.342;9.662;2022-10-23T08:26:03;100811.72;;;17.93;59.27
11648;BME280;5880;52.342;9.662;2022-10-23T08:28:30;100818.34;;;17.97;59.36
11648;BME280;5880;52.342;9.662;2022-10-23T08:30:56;100817.53;;;18.02;59.34
11648;BME280;5880;52.342;9.662;2022-10-23T08:33:22;100815.56;;;18.07;59.27
11648;BME280;5880;52.342;9.662;2022-10-23T08:35:49;100812.81;;;18.12;59.50
11648;BME280;5880;52.342;9.662;2022-10-23T08:38:15;100800.63;;;18.13;59.40
11648;BME280;5880;52.342;9.662;2022-10-23T08:40:47;100812.81;;;18.23;59.35
11648;BME280;5880;52.342;9.662;2022-10-23T08:43:36;100809.78;;;18.24;59.33
11648;BME280;5880;52.342;9.662;2022-10-23T08:46:09;100792.88;;;18.26;59.36
11648;BME280;5880;52.342;9.662;2022-10-23T08:48:46;100792.34;;;18.29;59.46
11648;BME280;5880;52.342;9.662;2022-10-23T08:51:35;100789.00;;;18.32;59.40
11648;BME280;5880;52.342;9.662;2022-10-23T08:54:12;100779.88;;;18.31;59.55
11648;BME280;5880;52.342;9.662;2022-10-23T08:56:42;100784.25;;;18.38;59.67
11648;BME280;5880;52.342;9.662;2022-10-23T08:59:24;100788.69;;;18.44;59.58
11648;BME280;5880;52.342;9.662;2022-10-23T09:02:35;100781.19;;;18.49;59.67
11648;BME280;5880;52.342;9.662;2022-10-23T09:05:03;100778.69;;;18.53;59.84
11648;BME280;5880;52.342;9.662;2022-10-23T09:07:47;100781.72;;;18.62;59.79
11648;BME280;5880;52.342;9.662;2022-10-23T09:10:48;100771.72;;;18.66;59.72
11648;BME280;5880;52.342;9.662;2022-10-23T09:19:15;100776.41;;;18.81;59.98
11648;BME280;5880;52.342;9.662;2022-10-23T09:21:43;100780.78;;;18.87;60.17
11648;BME280;5880;52.342;9.662;2022-10-23T09:24:16;100794.06;;;18.95;60.23
11648;BME280;5880;52.342;9.662;2022-10-23T09:26:48;100793.19;;;19.05;60.09
11648;BME280;5880;52.342;9.662;2022-10-23T09:29:28;100790.34;;;19.15;59.99
11648;BME280;5880;52.342;9.662;2022-10-23T09:31:58;100791.72;;;19.23;60.18
11648;BME280;5880;52.342;9.662;2022-10-23T09:34:27;100790.81;;;19.32;60.03
11648;BME280;5880;52.342;9.662;2022-10-23T09:37:20;100783.56;;;19.42;59.91
11648;BME280;5880;52.342;9.662;2022-10-23T09:39:46;100786.81;;;19.49;60.03
11648;BME280;5880;52.342;9.662;2022-10-23T09:42:22;100781.19;;;19.59;59.70
11648;BME280;5880;52.342;9.662;2022-10-23T09:44:52;100781.47;;;19.63;59.63
11648;BME280;5880;52.342;9.662;2022-10-23T09:47:22;100777.53;;;19.69;59.53
11648;BME280;5880;52.342;9.662;2022-10-23T09:49:55;100774.75;;;19.69;59.40
11648;BME280;5880;52.342;9.662;2022-10-23T09:52:35;100771.97;;;19.74;59.25
11648;BME280;5880;52.342;9.662;2022-10-23T09:55:19;100777.53;;;19.74;59.29
11648;BME280;5880;52.342;9.662;2022-10-23T09:57:46;100773.91;;;19.73;59.38
11648;BME280;5880;52.342;9.662;2022-10-23T10:00:25;100770.56;;;19.76;59.15
11648;BME280;5880;52.342;9.662;2022-10-23T10:03:02;100769.44;;;19.77;59.14
11648;BME280;5880;52.342;9.662;2022-10-23T10:05:33;100765.56;;;19.78;59.03
11648;BME280;5880;52.342;9.662;2022-10-23T10:08:14;100764.16;;;19.76;59.14
11648;BME280;5880;52.342;9.662;2022-10-23T10:17:07;100750.56;;;19.79;59.17
11648;BME280;5880;52.342;9.662;2022-10-23T10:19:58;100752.19;;;19.80;59.09
11648;BME280;5880;52.342;9.662;2022-10-23T10:22:49;100740.28;;;19.80;59.10
11648;BME280;5880;52.342;9.662;2022-10-23T10:28:52;100724.47;;;19.80;58.83
11648;BME280;5880;52.342;9.662;2022-10-23T10:34:21;100726.97;;;19.82;59.17
11648;BME280;5880;52.342;9.662;2022-10-23T10:37:09;100714.47;;;19.85;59.33
11648;BME280;5880;52.342;9.662;2022-10-23T10:39:57;100726.09;;;19.87;59.26
11648;BME280;5880;52.342;9.662;2022-10-23T10:45:38;100713.84;;;19.93;59.21
11648;BME280;5880;52.342;9.662;2022-10-23T10:51:25;100706.81;;;20.00;59.17
11648;BME280;5880;52.342;9.662;2022-10-23T10:54:20;100710.66;;;20.05;59.50
11648;BME280;5880;52.342;9.662;2022-10-23T10:56:51;100694.25;;;20.08;59.53
11648;BME280;5880;52.342;9.662;2022-10-23T10:59:23;100693.91;;;20.15;59.39
11648;BME280;5880;52.342;9.662;2022-10-23T11:02:01;100697.44;;;20.20;58.95
11648;BME280;5880;52.342;9.662;2022-10-23T11:04:38;100704.03;;;20.24;58.76
11648;BME280;5880;52.342;9.662;2022-10-23T11:07:14;100693.47;;;20.27;58.98
11648;BME280;5880;52.342;9.662;2022-10-23T11:09:42;100697.31;;;20.31;58.86
11648;BME280;5880;52.342;9.662;2022-10-23T11:12:25;100686.16;;;20.36;58.62
11648;BME280;5880;52.342;9.662;2022-10-23T11:14:51;100683.91;;;20.38;58.97
11648;BME280;5880;52.342;9.662;2022-10-23T11:17:20;100670.78;;;20.43;58.80
11648;BME280;5880;52.342;9.662;2022-10-23T11:20:02;100671.56;;;20.49;58.85
11648;BME280;5880;52.342;9.662;2022-10-23T11:22:46;100671.78;;;20.53;58.53
11648;BME280;5880;52.342;9.662;2022-10-23T11:26:04;100670.91;;;20.57;58.69
11648;BME280;5880;52.342;9.662;2022-10-23T11:29:08;100660.06;;;20.61;58.73
11648;BME280;5880;52.342;9.662;2022-10-23T11:34:47;100654.06;;;20.73;58.50
11648;BME280;5880;52.342;9.662;2022-10-23T11:37:21;100645.13;;;20.76;58.33
11648;BME280;5880;52.342;9.662;2022-10-23T11:45:25;100638.00;;;20.89;58.15
11648;BME280;5880;52.342;9.662;2022-10-23T11:48:04;100620.72;;;20.92;58.16
11648;BME280;5880;52.342;9.662;2022-10-23T11:50:52;100621.78;;;20.96;58.16
11648;BME280;5880;52.342;9.662;2022-10-23T11:53:36;100613.97;;;20.98;57.91
11648;BME280;5880;52.342;9.662;2022-10-23T11:58:57;100600.19;;;21.06;57.60
11648;BME280;5880;52.342;9.662;2022-10-23T12:01:40;100602.88;;;21.12;57.86
11648;BME280;5880;52.342;9.662;2022-10-23T12:06:52;100602.41;;;21.23;57.81
11648;BME280;5880;52.342;9.662;2022-10-23T12:09:41;100597.59;;;21.29;57.77
11648;BME280;5880;52.342;9.662;2022-10-23T12:19:53;100581.28;;;21.41;56.97
11648;BME280;5880;52.342;9.662;2022-10-23T12:22:26;100583.75;;;21.43;56.75
11648;BME280;5880;52.342;9.662;2022-10-23T12:25:19;100565.94;;;21.44;56.82
11648;BME280;5880;52.342;9.662;2022-10-23T12:28:23;100568.72;;;21.44;56.79
11648;BME280;5880;52.342;9.662;2022-10-23T12:39:32;100533.47;;;21.39;56.86
11648;BME280;5880;52.342;9.662;2022-10-23T12:42:02;100525.66;;;21.41;56.67
11648;BME280;5880;52.342;9.662;2022-10-23T12:44:28;100515.88;;;21.44;56.90
11648;BME280;5880;52.342;9.662;2022-10-23T12:47:01;100518.06;;;21.47;56.58
11648;BME280;5880;52.342;9.662;2022-10-23T12:49:30;100518.91;;;21.47;56.61
11648;BME280;5880;52.342;9.662;2022-10-23T12:52:20;100523.63;;;21.47;56.40
11648;BME280;5880;52.342;9.662;2022-10-23T12:54:46;100520.84;;;21.47;56.48
11648;BME280;5880;52.342;9.662;2022-10-23T12:57:25;100513.34;;;21.47;56.09
11648;BME280;5880;52.342;9.662;2022-10-23T13:00:00;100511.38;;;21.48;56.09
11648;BME280;5880;52.342;9.662;2022-10-23T13:02:31;100509.75;;;21.47;56.06
11648;BME280;5880;52.342;9.662;2022-10-23T13:05:01;100509.75;;;21.47;56.19
11648;BME280;5880;52.342;9.662;2022-10-23T13:07:35;100500.53;;;21.46;56.15
11648;BME280;5880;52.342;9.662;2022-10-23T13:10:04;100498.91;;;21.45;55.81
11648;BME280;5880;52.342;9.662;2022-10-23T13:12:33;100491.38;;;21.46;56.02
11648;BME280;5880;52.342;9.662;2022-10-23T13:17:47;100486.66;;;21.46;55.94
11648;BME280;5880;52.342;9.662;2022-10-23T13:20:40;100460.91;;;21.41;55.98
11648;BME280;5880;52.342;9.662;2022-10-23T13:25:37;100452.47;;;21.46;56.01
11648;BME280;5880;52.342;9.662;2022-10-23T13:30:37;100438.78;;;21.49;56.13
11648;BME280;5880;52.342;9.662;2022-10-23T13:33:30;100442.06;;;21.52;56.21
11648;BME280;5880;52.342;9.662;2022-10-23T13:41:12;100450.91;;;21.54;55.77
11648;BME280;5880;52.342;9.662;2022-10-23T13:43:40;100445.78;;;21.47;56.06
11648;BME280;5880;52.342;9.662;2022-10-23T13:46:18;100447.31;;;21.53;55.59
11648;BME280;5880;52.342;9.662;2022-10-23T13:48:45;100451.53;;;21.50;55.75
11648;BME280;5880;52.342;9.662;2022-10-23T13:51:20;100439.28;;;21.52;55.60
11648;BME280;5880;52.342;9.662;2022-10-23T13:53:47;100445.97;;;21.50;55.61
11648;BME280;5880;52.342;9.662;2022-10-23T13:56:14;100444.34;;;21.49;55.58
11648;BME280;5880;52.342;9.662;2022-10-23T13:58:41;100445.47;;;21.48;55.56
11648;BME280;5880;52.342;9.662;2022-10-23T14:01:21;100437.94;;;21.49;55.52
11648;BME280;5880;52.342;9.662;2022-10-23T14:03:49;100435.78;;;21.46;55.44
11648;BME280;5880;52.342;9.662;2022-10-23T14:06:15;100427.44;;;21.46;55.39
11648;BME280;5880;52.342;9.662;2022-10-23T14:08:42;100423.03;;;21.45;55.29
11648;BME280;5880;52.342;9.662;2022-10-23T14:11:10;100419.94;;;21.46;55.52
11648;BME280;5880;52.342;9.662;2022-10-23T14:13:36;100411.91;;;21.45;55.09
11648;BME280;5880;52.342;9.662;2022-10-23T14:16:02;100410.59;;;21.42;55.26
11648;BME280;5880;52.342;9.662;2022-10-23T14:18:28;100395.03;;;21.41;55.39
11648;BME280;5880;52.342;9.662;2022-10-23T14:20:53;100406.13;;;21.41;55.40
11648;BME280;5880;52.342;9.662;2022-10-23T14:23:19;100385.06;;;21.40;55.29
11648;BME280;5880;52.342;9.662;2022-10-23T14:25:45;100388.09;;;21.39;55.11
11648;BME280;5880;52.342;9.662;2022-10-23T14:33:03;100371.41;;;21.39;55.39
11648;BME280;5880;52.342;9.662;2022-10-23T14:37:54;100363.06;;;21.39;55.50
11648;BME280;5880;52.342;9.662;2022-10-23T14:40:20;100370.09;;;21.36;55.33
11648;BME280;5880;52.342;9.662;2022-10-23T14:42:45;100375.88;;;21.40;55.49
11648;BME280;5880;52.342;9.662;2022-10-23T14:45:11;100388.63;;;21.41;55.19
11648;BME280;5880;52.342;9.662;2022-10-23T14:47:37;100373.94;;;21.40;55.43
11648;BME280;5880;52.342;9.662;2022-10-23T14:50:03;100361.66;;;21.41;55.46
11648;BME280;5880;52.342;9.662;2022-10-23T14:52:29;100350.84;;;21.40;55.30
11648;BME280;5880;52.342;9.662;2022-10-23T14:54:54;100347.75;;;21.41;55.32
11648;BME280;5880;52.342;9.662;2022-10-23T14:57:20;100341.66;;;21.39;55.28
11648;BME280;5880;52.342;9.662;2022-10-23T14:59:48;100336.09;;;21.39;55.48